Time;durP1;ratioP1;P1;durP2;ratioP2;P2;SDS_P1;SDS_P2;PMS_P1;PMS_P2;Temp;Humidity;BMP_temperature;BMP_pressure;BME280_temperature;BME280_humidity;BME280_pressure;Samples;Min_cycle;Max_cycle;Signal;HPM_P1;HPM_P2
2022/04/05 00:01:11;;;;;;;25.57;12.40;;;;;;;-1.03;64.45;98937.42;1762203;81;21490;-77
2022/04/05 00:03:37;;;;;;;33.70;12.33;;;;;;;-1.09;64.82;98937.73;1762058;81;20999;-79
2022/04/05 00:06:22;;;;;;;28.83;12.53;;;;;;;-1.13;63.08;98929.15;1762351;81;21003;-78
2022/04/05 00:08:49;;;;;;;27.07;12.53;;;;;;;-1.17;64.38;98926.09;1761957;81;21550;-78
2022/04/05 00:11:16;;;;;;;31.10;13.85;;;;;;;-1.18;64.42;98920.54;1753715;81;21029;-77
2022/04/05 00:13:43;;;;;;;30.88;14.40;;;;;;;-1.17;63.75;98926.48;1747735;82;21035;-78
2022/04/05 00:16:10;;;;;;;37.83;15.53;;;;;;;-1.21;64.80;98917.95;1747847;82;20969;-78
2022/04/05 00:18:38;;;;;;;26.73;13.88;;;;;;;-1.26;66.67;98911.45;1747538;81;21041;-78
2022/04/05 00:21:06;;;;;;;32.03;13.40;;;;;;;-1.27;66.56;98913.58;1747722;82;21033;-77
2022/04/05 00:23:33;;;;;;;34.80;14.73;;;;;;;-1.27;65.32;98908.91;1747797;82;20999;-79
2022/04/05 00:25:59;;;;;;;41.88;16.65;;;;;;;-1.25;65.19;98922.55;1747606;82;21017;-77
2022/04/05 00:28:26;;;;;;;51.42;20.20;;;;;;;-1.22;66.89;98916.20;1747465;82;21017;-79
2022/04/05 00:30:53;;;;;;;40.80;16.75;;;;;;;-1.17;67.74;98915.02;1747808;82;21513;-79
2022/04/05 00:33:20;;;;;;;26.73;12.13;;;;;;;-1.13;67.50;98916.39;1747632;82;21051;-79
2022/04/05 00:35:46;;;;;;;30.55;13.93;;;;;;;-1.12;66.89;98910.87;1746484;82;21531;-77
2022/04/05 00:38:14;;;;;;;28.20;12.85;;;;;;;-1.13;67.63;98909.16;1747512;82;21017;-77
2022/04/05 00:40:40;;;;;;;34.30;13.53;;;;;;;-1.17;67.31;98909.52;1747789;82;20970;-77
2022/04/05 00:43:07;;;;;;;27.10;10.70;;;;;;;-1.16;67.68;98903.56;1747748;82;21085;-77
2022/04/05 00:45:35;;;;;;;30.88;12.28;;;;;;;-1.17;67.63;98899.70;1747566;82;21050;-78
2022/04/05 00:48:04;;;;;;;35.38;13.95;;;;;;;-1.20;67.41;98900.09;1747766;82;21048;-78
2022/04/05 00:50:36;;;;;;;39.13;12.07;;;;;;;-1.23;66.67;98896.66;1747682;82;21018;-77
2022/04/05 00:53:05;;;;;;;32.48;13.30;;;;;;;-1.25;68.06;98899.59;1700076;83;21108;-77
2022/04/05 00:55:34;;;;;;;28.40;12.18;;;;;;;-1.26;68.59;98895.30;1742349;82;21081;-78
2022/04/05 00:58:03;;;;;;;31.82;11.95;;;;;;;-1.29;67.72;98895.27;1742480;82;21034;-78
2022/04/05 01:00:31;;;;;;;27.93;12.03;;;;;;;-1.34;66.41;98901.95;1670487;85;21037;-77
2022/04/05 01:02:59;;;;;;;27.95;12.75;;;;;;;-1.38;65.41;98889.55;1700078;83;21033;-77
2022/04/05 01:05:27;;;;;;;39.33;12.78;;;;;;;-1.47;65.65;98888.97;1699841;83;20989;-77
2022/04/05 01:07:59;;;;;;;31.48;12.23;;;;;;;-1.58;66.80;98884.06;1688036;83;21053;-78
2022/04/05 01:10:29;;;;;;;22.07;10.23;;;;;;;-1.63;67.14;98887.80;1701269;83;21006;-78
2022/04/05 01:12:56;;;;;;;20.62;10.35;;;;;;;-1.69;69.97;98886.41;1744249;82;21020;-79
2022/04/05 01:15:24;;;;;;;24.37;10.48;;;;;;;-1.75;68.95;98874.81;1717138;82;21004;-78
2022/04/05 01:17:53;;;;;;;29.42;12.78;;;;;;;-1.79;68.25;98878.13;1717251;82;21067;-78
2022/04/05 01:20:19;;;;;;;30.45;13.22;;;;;;;-1.83;69.48;98875.05;1717192;82;20962;-77
2022/04/05 01:22:48;;;;;;;31.55;12.82;;;;;;;-1.87;67.87;98876.69;1700425;84;21025;-78
2022/04/05 01:25:18;;;;;;;26.87;12.15;;;;;;;-1.87;67.99;98867.77;1696785;84;21029;-78
2022/04/05 01:27:46;;;;;;;30.02;13.58;;;;;;;-1.85;67.25;98871.21;1697855;84;21160;-78
2022/04/05 01:30:14;;;;;;;29.07;12.82;;;;;;;-1.87;68.26;98877.08;1698536;84;21529;-78
2022/04/05 01:32:41;;;;;;;36.93;13.68;;;;;;;-1.89;68.09;98876.19;1698298;84;21092;-79
2022/04/05 01:35:09;;;;;;;26.50;10.82;;;;;;;-1.90;69.24;98868.97;1698305;84;21060;-78
2022/04/05 01:37:36;;;;;;;26.62;11.48;;;;;;;-1.90;66.45;98873.21;1698299;84;21045;-78
2022/04/05 01:40:05;;;;;;;34.03;12.33;;;;;;;-1.95;67.50;98865.87;1698554;84;21088;-78
2022/04/05 01:42:33;;;;;;;34.48;11.22;;;;;;;-1.98;68.51;98867.95;1698194;84;21511;-79
2022/04/05 01:45:00;;;;;;;31.25;12.93;;;;;;;-2.03;67.56;98864.43;1698533;84;21489;-79
2022/04/05 01:47:27;;;;;;;29.40;13.38;;;;;;;-2.08;68.20;98860.94;1698404;84;21015;-77
2022/04/05 01:49:54;;;;;;;35.08;12.75;;;;;;;-2.08;68.88;98855.42;1743609;82;21492;-77
2022/04/05 01:52:20;;;;;;;24.60;10.70;;;;;;;-2.05;69.98;98854.23;1744882;82;20999;-78
2022/04/05 01:54:47;;;;;;;29.37;13.18;;;;;;;-2.02;68.02;98858.52;1717089;82;21533;-78
2022/04/05 01:57:15;;;;;;;31.42;12.37;;;;;;;-2.00;68.41;98852.63;1698366;84;21056;-78
2022/04/05 01:59:43;;;;;;;33.20;13.50;;;;;;;-1.97;69.65;98846.76;1698437;84;21051;-77
2022/04/05 02:02:11;;;;;;;33.42;14.63;;;;;;;-2.01;68.66;98848.38;1698393;84;21756;-79
2022/04/05 02:04:39;;;;;;;26.05;12.05;;;;;;;-2.01;69.17;98845.83;1698246;84;21037;-77
2022/04/05 02:07:16;;;;;;;32.35;12.25;;;;;;;-2.01;68.53;98850.03;1698395;84;21021;-77
2022/04/05 02:09:48;;;;;;;37.60;14.98;;;;;;;-2.12;69.81;98843.45;1698348;84;21658;-79
2022/04/05 02:12:19;;;;;;;51.28;17.80;;;;;;;-2.21;70.42;98845.40;1677458;84;21027;-78
2022/04/05 02:14:53;;;;;;;38.40;14.38;;;;;;;-2.21;68.99;98845.40;1731893;81;21063;-77
2022/04/05 02:17:22;;;;;;;33.15;14.05;;;;;;;-2.18;69.36;98836.11;1755144;81;21019;-79
2022/04/05 02:19:50;;;;;;;32.75;13.72;;;;;;;-2.15;70.57;98837.42;1730877;81;21042;-78
2022/04/05 02:22:18;;;;;;;34.43;12.80;;;;;;;-2.12;68.76;98835.81;1729838;81;21043;-78
2022/04/05 02:24:45;;;;;;;34.03;12.20;;;;;;;-2.10;69.58;98835.85;1736126;81;21043;-78
2022/04/05 02:27:11;;;;;;;28.50;11.55;;;;;;;-2.10;69.59;98838.40;1733543;81;21530;-78
2022/04/05 02:29:38;;;;;;;31.70;11.50;;;;;;;-2.07;69.29;98839.72;1744938;81;21003;-78
2022/04/05 02:32:08;;;;;;;23.52;11.15;;;;;;;-2.08;69.46;98836.32;1724954;81;21030;-77
2022/04/05 02:34:35;;;;;;;29.47;12.40;;;;;;;-2.08;70.00;98835.05;1706383;81;21534;-78
2022/04/05 02:37:02;;;;;;;24.18;10.95;;;;;;;-2.11;69.31;98831.57;1729588;81;21019;-78
2022/04/05 02:39:29;;;;;;;23.07;11.22;;;;;;;-2.12;69.93;98832.41;1752342;81;21027;-77
2022/04/05 02:41:57;;;;;;;27.30;12.07;;;;;;;-2.14;69.91;98829.83;1731632;81;21059;-78
2022/04/05 02:44:24;;;;;;;27.50;11.03;;;;;;;-2.15;69.14;98833.19;1729818;81;21027;-77
2022/04/05 02:46:53;;;;;;;22.30;10.55;;;;;;;-2.18;69.58;98822.95;1733438;81;20984;-77
2022/04/05 02:49:21;;;;;;;25.35;12.23;;;;;;;-2.20;68.17;98816.54;1753234;81;21031;-78
2022/04/05 02:51:48;;;;;;;32.23;11.97;;;;;;;-2.25;68.82;98818.54;1737530;81;21479;-77
2022/04/05 02:54:16;;;;;;;35.95;12.53;;;;;;;-2.28;71.22;98816.80;1742891;81;21071;-76
2022/04/05 02:56:45;;;;;;;24.80;10.43;;;;;;;-2.27;71.21;98815.98;1711154;81;21789;-77
2022/04/05 02:59:13;;;;;;;39.60;11.63;;;;;;;-2.25;70.98;98808.35;1734454;81;21015;-78
2022/04/05 03:01:41;;;;;;;31.85;11.25;;;;;;;-2.28;69.24;98815.52;1728576;81;21022;-78
2022/04/05 03:04:09;;;;;;;29.40;10.72;;;;;;;-2.28;70.20;98811.70;1749255;81;21055;-79
2022/04/05 03:06:36;;;;;;;27.67;11.63;;;;;;;-2.32;68.24;98804.83;1738859;81;21027;-77
2022/04/05 03:09:04;;;;;;;29.23;13.15;;;;;;;-2.36;71.40;98806.86;1751813;81;21003;-77
2022/04/05 03:11:31;;;;;;;34.35;13.80;;;;;;;-2.33;70.60;98808.61;1754816;81;21026;-77
2022/04/05 03:13:58;;;;;;;31.42;12.43;;;;;;;-2.31;70.19;98808.22;1700164;83;21092;-78
2022/04/05 03:16:25;;;;;;;31.60;13.30;;;;;;;-2.29;70.76;98802.36;1719324;82;21001;-77
2022/04/05 03:18:53;;;;;;;32.38;11.75;;;;;;;-2.27;70.70;98803.64;1719250;82;21034;-77
2022/04/05 03:21:20;;;;;;;29.32;11.93;;;;;;;-2.26;71.30;98805.37;1742515;82;20982;-77
2022/04/05 03:23:47;;;;;;;24.98;10.98;;;;;;;-2.28;71.24;98809.16;1742258;82;20997;-77
2022/04/05 03:26:13;;;;;;;27.27;10.93;;;;;;;-2.30;71.12;98809.53;1742449;82;21030;-78
2022/04/05 03:28:40;;;;;;;25.52;11.38;;;;;;;-2.30;71.01;98806.98;1743460;82;21164;-78
2022/04/05 03:31:07;;;;;;;24.98;10.72;;;;;;;-2.28;71.24;98806.61;1700028;83;20962;-78
2022/04/05 03:33:35;;;;;;;30.85;13.08;;;;;;;-2.31;70.74;98802.70;1699905;83;21023;-77
2022/04/05 03:36:03;;;;;;;27.62;12.05;;;;;;;-2.32;71.89;98800.16;1699940;83;21021;-79
2022/04/05 03:38:30;;;;;;;30.50;13.58;;;;;;;-2.36;70.86;98797.09;1700345;83;21012;-79
2022/04/05 03:40:58;;;;;;;37.05;13.72;;;;;;;-2.37;70.91;98798.77;1742557;82;20996;-78
2022/04/05 03:43:25;;;;;;;32.85;12.85;;;;;;;-2.38;71.49;98790.69;1670329;85;21039;-78
2022/04/05 03:45:53;;;;;;;31.48;12.70;;;;;;;-2.44;72.34;98797.78;1732413;82;21018;-77
2022/04/05 03:48:21;;;;;;;20.80;10.43;;;;;;;-2.50;72.47;98800.61;1670477;86;21590;-78
2022/04/05 03:50:47;;;;;;;32.95;14.58;;;;;;;-2.51;73.21;98802.70;1700068;83;20976;-77
2022/04/05 03:53:15;;;;;;;87.35;25.35;;;;;;;-2.49;73.10;98804.86;1700137;83;20993;-77
2022/04/05 03:55:42;;;;;;;61.25;20.62;;;;;;;-2.51;70.27;98806.52;1699934;83;21031;-77
2022/04/05 03:58:13;;;;;;;51.68;17.90;;;;;;;-2.58;71.15;98813.16;1742413;82;20977;-77
2022/04/05 04:00:40;;;;;;;32.33;12.90;;;;;;;-2.64;72.02;98808.78;1670488;85;21063;-78
2022/04/05 04:03:15;;;;;;;29.32;11.78;;;;;;;-2.69;70.58;98801.45;1699950;83;21017;-80
2022/04/05 04:05:42;;;;;;;27.30;11.85;;;;;;;-2.72;70.49;98806.48;1699925;84;21100;-77
2022/04/05 04:08:10;;;;;;;32.08;12.98;;;;;;;-2.75;70.69;98811.48;1700602;83;20981;-78
2022/04/05 04:10:37;;;;;;;19.05;9.45;;;;;;;-2.83;72.61;98804.94;1685395;84;21016;-77
2022/04/05 04:13:05;;;;;;;24.87;10.68;;;;;;;-2.87;71.91;98803.57;1714528;82;21002;-76
2022/04/05 04:15:34;;;;;;;24.57;9.45;;;;;;;-2.93;72.96;98804.28;1746463;82;21000;-77
2022/04/05 04:18:01;;;;;;;20.77;8.65;;;;;;;-2.93;71.22;98808.52;1718797;82;21536;-78
2022/04/05 04:20:30;;;;;;;70.12;30.95;;;;;;;-2.95;72.10;98812.28;1717735;82;21555;-77
2022/04/05 04:22:57;;;;;;;19.07;9.30;;;;;;;-2.96;70.70;98814.39;1699086;84;21028;-77
2022/04/05 04:25:24;;;;;;;26.40;13.15;;;;;;;-2.96;71.94;98821.14;1698777;84;21035;-78
2022/04/05 04:27:51;;;;;;;91.87;37.78;;;;;;;-2.92;73.24;98812.37;1698893;84;21462;-78
2022/04/05 04:30:18;;;;;;;43.25;15.90;;;;;;;-2.84;73.25;98818.50;1698581;84;21075;-77
2022/04/05 04:32:45;;;;;;;31.12;11.68;;;;;;;-2.74;73.63;98817.04;1698865;84;21069;-79
2022/04/05 04:35:12;;;;;;;25.25;9.75;;;;;;;-2.71;71.95;98810.73;1698669;84;21071;-79
2022/04/05 04:37:39;;;;;;;29.67;12.47;;;;;;;-2.68;72.64;98811.23;1686784;85;21115;-78
2022/04/05 04:40:07;;;;;;;38.50;16.60;;;;;;;-2.62;72.69;98807.14;1672841;84;21056;-79
2022/04/05 04:42:34;;;;;;;47.05;16.17;;;;;;;-2.53;73.16;98804.34;1698591;84;20968;-77
2022/04/05 04:45:02;;;;;;;41.18;15.58;;;;;;;-2.47;73.06;98813.39;1698808;84;21667;-78
2022/04/05 04:47:28;;;;;;;53.80;18.40;;;;;;;-2.41;72.33;98810.59;1698568;84;21316;-78
2022/04/05 04:49:55;;;;;;;49.20;17.95;;;;;;;-2.43;72.57;98804.61;1698608;84;21541;-79
2022/04/05 04:52:22;;;;;;;58.15;19.10;;;;;;;-2.42;70.83;98808.85;1698553;84;21019;-77
2022/04/05 04:54:48;;;;;;;62.70;20.85;;;;;;;-2.37;73.30;98806.82;1698597;84;20998;-78
2022/04/05 04:57:15;;;;;;;64.20;20.35;;;;;;;-2.34;71.84;98806.48;1698278;84;21507;-77
2022/04/05 04:59:42;;;;;;;60.15;20.55;;;;;;;-2.31;71.42;98806.53;1688662;84;20984;-78
2022/04/05 05:02:08;;;;;;;51.20;20.77;;;;;;;-2.26;71.15;98804.95;1698506;84;21024;-77
2022/04/05 05:04:35;;;;;;;46.68;14.55;;;;;;;-2.21;71.50;98803.77;1698635;84;21023;-79
2022/04/05 05:07:02;;;;;;;31.62;14.73;;;;;;;-2.17;71.39;98805.97;1698524;84;21533;-79
2022/04/05 05:09:29;;;;;;;34.85;13.15;;;;;;;-2.20;72.12;98803.81;1698826;84;21043;-78
2022/04/05 05:11:56;;;;;;;30.00;14.18;;;;;;;-2.13;72.95;98793.75;1699909;84;21023;-77
2022/04/05 05:14:23;;;;;;;29.23;14.07;;;;;;;-2.08;71.42;98808.72;1677411;84;21047;-79
2022/04/05 05:16:49;;;;;;;31.60;13.20;;;;;;;-2.04;71.81;98802.86;1696551;84;21015;-78
2022/04/05 05:19:16;;;;;;;32.53;14.70;;;;;;;-2.00;70.78;98800.40;1682198;84;20969;-78
2022/04/05 05:21:42;;;;;;;45.80;15.72;;;;;;;-1.96;71.20;98797.50;1678451;84;21085;-77
2022/04/05 05:24:09;;;;;;;32.85;13.38;;;;;;;-2.03;71.61;98781.64;1681477;84;21020;-77
2022/04/05 05:26:36;;;;;;;32.10;13.60;;;;;;;-1.89;70.86;98792.98;1697552;83;21008;-78
2022/04/05 05:29:02;;;;;;;31.23;13.65;;;;;;;-1.83;70.56;98798.20;1685948;84;21071;-78
2022/04/05 05:31:29;;;;;;;25.97;12.88;;;;;;;-1.81;71.26;98791.44;1683118;84;21015;-77
2022/04/05 05:33:55;;;;;;;27.42;13.13;;;;;;;-1.77;71.09;98796.19;1691480;84;20999;-77
2022/04/05 05:36:22;;;;;;;39.00;14.95;;;;;;;-1.73;71.34;98786.89;1688764;84;21107;-78
2022/04/05 05:38:49;;;;;;;30.48;13.45;;;;;;;-1.68;70.62;98789.13;1698037;84;21574;-77
2022/04/05 05:41:15;;;;;;;30.80;12.30;;;;;;;-1.61;70.30;98788.00;1686486;84;21011;-78
2022/04/05 05:43:45;;;;;;;35.17;14.43;;;;;;;-1.56;70.50;98780.42;1704133;84;21027;-78
2022/04/05 05:46:12;;;;;;;39.33;14.30;;;;;;;-1.53;70.06;98787.26;1675925;84;21602;-78
2022/04/05 05:48:39;;;;;;;34.00;12.47;;;;;;;-1.54;70.23;98781.73;1689837;83;21713;-77
2022/04/05 05:51:06;;;;;;;38.55;15.65;;;;;;;-1.50;70.23;98782.23;1694057;83;21015;-78
2022/04/05 05:53:33;;;;;;;37.60;15.20;;;;;;;-1.49;71.51;98781.37;1659888;85;21049;-77
2022/04/05 05:56:00;;;;;;;36.03;13.75;;;;;;;-1.43;70.63;98777.27;1720148;81;21043;-79
2022/04/05 05:58:28;;;;;;;36.45;15.03;;;;;;;-1.35;71.32;98773.59;1722201;81;21027;-78
2022/04/05 06:00:55;;;;;;;27.35;12.05;;;;;;;-1.24;71.75;98771.20;1721055;81;21610;-78
2022/04/05 06:03:21;;;;;;;35.13;12.98;;;;;;;-1.12;71.16;98765.02;1721723;81;21031;-76
2022/04/05 06:05:48;;;;;;;31.97;14.38;;;;;;;-1.01;70.86;98767.34;1718120;81;20993;-78
2022/04/05 06:08:15;;;;;;;31.60;13.45;;;;;;;-0.91;71.12;98768.34;1696910;83;21162;-78
2022/04/05 06:10:41;;;;;;;30.72;13.93;;;;;;;-0.79;70.08;98761.72;1691685;83;21343;-78
2022/04/05 06:13:08;;;;;;;36.55;14.60;;;;;;;-0.75;70.60;98760.50;1703871;82;21036;-78
2022/04/05 06:15:35;;;;;;;30.32;13.18;;;;;;;-0.61;71.06;98763.26;1723349;82;22360;-77
2022/04/05 06:18:02;;;;;;;30.60;13.85;;;;;;;-0.48;70.30;98754.06;1723669;82;21563;-78
2022/04/05 06:20:28;;;;;;;30.95;13.45;;;;;;;-0.43;70.41;98748.18;1726826;82;21008;-78
2022/04/05 06:23:02;;;;;;;35.13;15.45;;;;;;;-0.30;70.07;98745.39;1724343;82;20985;-77
2022/04/05 06:25:34;;;;;;;;;;;;;;;-0.12;69.66;98741.31;1732248;82;21024;-78
2022/04/05 06:28:04;;;;;;;32.88;12.43;;;;;;;0.02;70.40;98737.25;1716817;82;20156;-78
2022/04/05 06:30:33;;;;;;;36.03;14.73;;;;;;;0.16;69.42;98738.25;1730349;82;21522;-78
2022/04/05 06:33:10;;;;;;;25.50;11.80;;;;;;;0.29;68.87;98743.49;1734954;81;21004;-78
2022/04/05 06:35:40;;;;;;;32.58;10.95;;;;;;;0.42;68.57;98737.67;1704222;83;21694;-79
2022/04/05 06:38:07;;;;;;;30.90;12.35;;;;;;;0.53;68.48;98741.16;1670396;84;21075;-77
2022/04/05 06:40:34;;;;;;;21.48;9.95;;;;;;;0.66;68.01;98737.47;1713597;82;21099;-77
2022/04/05 06:43:00;;;;;;;32.55;13.10;;;;;;;0.71;67.82;98737.91;1697917;83;21097;-77
2022/04/05 06:45:28;;;;;;;20.50;10.08;;;;;;;0.84;67.26;98732.49;1717028;82;21056;-79
2022/04/05 06:47:55;;;;;;;26.87;11.65;;;;;;;0.87;67.22;98732.94;1705231;83;22184;-81
2022/04/05 06:50:25;;;;;;;24.63;10.78;;;;;;;0.99;67.06;98737.74;1696514;83;21031;-80
2022/04/05 06:52:55;;;;;;;20.85;8.80;;;;;;;1.09;66.17;98724.55;1698116;83;21035;-79
2022/04/05 06:55:22;;;;;;;23.25;8.38;;;;;;;1.21;66.01;98730.19;1699349;83;21088;-79
2022/04/05 06:57:49;;;;;;;19.07;9.70;;;;;;;1.35;65.59;98722.59;1699996;83;21578;-78
2022/04/05 07:00:23;;;;;;;18.00;9.10;;;;;;;1.49;65.47;98727.39;1719094;82;21044;-77
2022/04/05 07:02:45;;;;;;;19.70;9.70;;;;;;;1.64;65.14;98718.91;1718459;82;21024;-79
2022/04/05 07:05:12;;;;;;;22.05;9.45;;;;;;;1.83;64.73;98716.02;1667461;84;21040;-81
2022/04/05 07:07:40;;;;;;;26.07;9.73;;;;;;;2.02;63.45;98702.81;1722971;82;21075;-78
2022/04/05 07:10:10;;;;;;;21.00;10.68;;;;;;;2.19;63.69;98697.31;1720241;82;21060;-79
2022/04/05 07:12:37;;;;;;;23.60;10.13;;;;;;;2.36;62.30;98699.05;1722677;82;21532;-77
2022/04/05 07:15:06;;;;;;;23.75;9.90;;;;;;;2.53;62.60;98692.66;1756347;81;21000;-79
2022/04/05 07:17:32;;;;;;;23.73;10.93;;;;;;;2.66;63.15;98688.38;1750344;81;20991;-78
2022/04/05 07:19:59;;;;;;;20.60;10.30;;;;;;;2.84;63.28;98685.80;1752170;81;21493;-78
2022/04/05 07:22:26;;;;;;;24.87;10.88;;;;;;;2.98;62.74;98689.64;1750130;81;21030;-78
2022/04/05 07:24:53;;;;;;;17.82;10.32;;;;;;;3.10;62.20;98679.34;1751651;81;21043;-78
2022/04/05 07:27:19;;;;;;;23.18;11.08;;;;;;;3.19;61.91;98681.91;1755688;81;21047;-78
2022/04/05 07:29:46;;;;;;;24.32;10.13;;;;;;;3.21;61.82;98675.92;1753366;81;21035;-80
2022/04/05 07:32:12;;;;;;;21.68;10.82;;;;;;;3.21;60.68;98670.35;1752055;81;20980;-78
2022/04/05 07:34:39;;;;;;;23.27;12.70;;;;;;;3.27;61.86;98670.33;1753903;81;21019;-78
2022/04/05 07:37:09;;;;;;;20.88;10.43;;;;;;;3.36;61.66;98665.59;1753899;81;21012;-79
2022/04/05 07:39:36;;;;;;;20.25;9.65;;;;;;;3.53;61.51;98671.97;1750790;81;21162;-77
2022/04/05 07:42:03;;;;;;;20.27;10.50;;;;;;;3.59;60.54;98669.38;1747900;81;21051;-78
2022/04/05 07:44:30;;;;;;;16.90;8.70;;;;;;;3.65;61.00;98655.21;1750495;81;21031;-79
2022/04/05 07:46:57;;;;;;;21.45;9.40;;;;;;;3.75;60.69;98660.73;1757384;81;21512;-80
2022/04/05 07:49:23;;;;;;;19.62;9.13;;;;;;;3.88;60.82;98655.52;1752909;81;21018;-79
2022/04/05 07:51:50;;;;;;;17.02;8.58;;;;;;;4.05;60.33;98655.00;1755581;81;20980;-79
2022/04/05 07:54:17;;;;;;;14.23;8.55;;;;;;;4.14;59.03;98647.24;1753507;81;21005;-80
2022/04/05 07:56:44;;;;;;;12.88;8.20;;;;;;;4.25;59.43;98650.17;1756355;81;21007;-80
2022/04/05 07:59:10;;;;;;;19.05;9.20;;;;;;;4.34;59.11;98649.68;1756097;81;21040;-80
2022/04/05 08:01:37;;;;;;;22.05;9.00;;;;;;;4.47;59.03;98647.01;1754025;81;21502;-78
2022/04/05 08:04:04;;;;;;;17.23;10.35;;;;;;;4.49;58.90;98642.70;1756233;81;21017;-79
2022/04/05 08:06:31;;;;;;;17.55;9.13;;;;;;;4.60;57.99;98632.34;1757070;81;22084;-78
2022/04/05 08:08:59;;;;;;;19.80;10.23;;;;;;;4.73;58.19;98628.77;1755527;81;20973;-78
2022/04/05 08:11:27;;;;;;;21.55;10.08;;;;;;;4.90;58.07;98613.16;1756513;81;21020;-80
2022/04/05 08:13:55;;;;;;;20.57;10.95;;;;;;;5.08;58.06;98614.70;1735834;81;21487;-81
2022/04/05 08:16:21;;;;;;;19.57;10.05;;;;;;;5.26;58.03;98611.06;1722172;82;21073;-81
2022/04/05 08:18:48;;;;;;;16.85;10.15;;;;;;;5.42;56.84;98609.16;1729485;82;21442;-80
2022/04/05 08:21:18;;;;;;;20.68;11.08;;;;;;;5.54;57.27;98612.88;1665813;85;21012;-79
2022/04/05 08:23:45;;;;;;;21.40;10.35;;;;;;;5.67;56.29;98602.83;1673873;85;21063;-79
2022/04/05 08:26:12;;;;;;;19.37;9.78;;;;;;;5.80;56.67;98601.36;1662826;84;21064;-78
2022/04/05 08:28:38;;;;;;;16.73;8.20;;;;;;;5.95;57.14;98595.59;1698109;84;21037;-78
2022/04/05 08:31:05;;;;;;;16.20;8.75;;;;;;;6.14;56.31;98603.89;1696136;84;21040;-79
2022/04/05 08:33:34;;;;;;;16.85;7.55;;;;;;;6.35;53.72;98592.84;1723543;82;21493;-78
2022/04/05 08:36:00;;;;;;;13.48;6.92;;;;;;;6.57;55.54;98581.27;1721912;82;22120;-81
2022/04/05 08:38:28;;;;;;;17.67;7.42;;;;;;;6.83;55.81;98581.25;1695764;83;21045;-78
2022/04/05 08:40:56;;;;;;;9.53;5.03;;;;;;;7.08;55.38;98573.02;1692266;83;21076;-77
2022/04/05 08:43:25;;;;;;;13.30;6.33;;;;;;;7.38;53.58;98561.21;1690792;83;21532;-80
2022/04/05 08:45:59;;;;;;;9.45;5.30;;;;;;;7.69;53.56;98558.83;1696697;83;21047;-79
2022/04/05 08:48:29;;;;;;;6.42;3.80;;;;;;;8.02;49.99;98557.67;1689060;83;21019;-79
2022/04/05 08:50:58;;;;;;;6.72;4.20;;;;;;;8.37;48.81;98544.30;1692963;84;21020;-78
2022/04/05 08:53:25;;;;;;;11.28;4.42;;;;;;;8.63;47.47;98539.78;1690410;84;21047;-77
2022/04/05 08:55:52;;;;;;;8.78;4.30;;;;;;;8.86;46.92;98542.23;1689973;84;21053;-77
2022/04/05 08:58:19;;;;;;;12.10;4.70;;;;;;;9.05;45.31;98537.37;1673348;84;21022;-76
2022/04/05 09:00:46;;;;;;;10.43;4.40;;;;;;;9.06;44.34;98519.19;1729296;82;21036;-76
2022/04/05 09:03:12;;;;;;;11.65;4.35;;;;;;;9.20;45.57;98530.47;1721859;82;21035;-76
2022/04/05 09:05:47;;;;;;;11.83;4.70;;;;;;;9.34;45.44;98523.59;1694974;84;21029;-77
2022/04/05 09:08:22;;;;;;;11.10;4.62;;;;;;;9.42;45.28;98527.26;1694206;84;20999;-77
2022/04/05 09:10:53;;;;;;;12.37;4.70;;;;;;;9.54;44.06;98524.30;1690844;84;21063;-78
2022/04/05 09:13:27;;;;;;;13.13;5.00;;;;;;;9.71;45.35;98514.72;1705413;83;21471;-77
2022/04/05 09:15:59;;;;;;;9.58;3.87;;;;;;;9.92;42.45;98517.91;1757038;81;21167;-79
2022/04/05 09:18:44;;;;;;;10.93;4.25;;;;;;;10.08;42.19;98508.34;1735888;81;21042;-78
2022/04/05 09:21:13;;;;;;;8.95;4.05;;;;;;;10.28;43.28;98510.28;1753174;81;20948;-78
2022/04/05 09:23:44;;;;;;;8.80;4.65;;;;;;;10.45;42.67;98521.45;1756137;81;21040;-80
2022/04/05 09:26:16;;;;;;;17.50;4.62;;;;;;;10.51;41.42;98515.59;1756817;81;21464;-79
2022/04/05 09:28:47;;;;;;;7.15;3.47;;;;;;;10.63;41.41;98506.53;1762381;81;21012;-79
2022/04/05 09:31:18;;;;;;;8.83;4.05;;;;;;;10.78;42.07;98510.78;1747329;81;21007;-77
2022/04/05 09:34:12;;;;;;;7.47;3.75;;;;;;;10.94;40.38;98511.93;1753245;81;21540;-78
2022/04/05 09:36:48;;;;;;;6.28;3.52;;;;;;;11.07;39.91;98507.98;1727933;81;21544;-78
2022/04/05 09:39:20;;;;;;;9.53;3.95;;;;;;;11.18;40.61;98498.94;1756870;81;21406;-79
2022/04/05 09:41:52;;;;;;;7.47;3.47;;;;;;;11.30;40.22;98496.75;1755349;81;21097;-79
2022/04/05 09:44:29;;;;;;;9.13;3.33;;;;;;;11.36;39.70;98496.97;1726835;81;21000;-79
2022/04/05 09:47:14;;;;;;;7.55;3.50;;;;;;;11.42;38.33;98485.02;1757405;81;21504;-79
2022/04/05 09:49:43;;;;;;;6.35;3.00;;;;;;;11.58;39.26;98487.88;1761331;81;21084;-78
2022/04/05 09:52:34;;;;;;;7.08;3.52;;;;;;;11.71;37.13;98493.45;1761533;81;21058;-78
2022/04/05 09:55:13;;;;;;;5.78;3.40;;;;;;;11.77;38.06;98491.06;1762490;81;21116;-78
2022/04/05 09:57:39;;;;;;;7.55;3.45;;;;;;;11.87;38.79;98485.88;1746303;81;21027;-78
2022/04/05 10:00:11;;;;;;;10.20;2.72;;;;;;;11.99;38.81;98480.66;1761235;80;21041;-77
2022/04/05 10:03:02;;;;;;;8.95;3.30;;;;;;;12.11;37.04;98489.27;1750537;81;21027;-77
2022/04/05 10:05:32;;;;;;;6.35;3.27;;;;;;;12.16;35.60;98486.03;1761161;81;21037;-80
2022/04/05 10:08:00;;;;;;;7.53;2.80;;;;;;;12.37;37.29;98475.16;1755809;81;21054;-79
2022/04/05 10:10:27;;;;;;;6.35;2.67;;;;;;;12.52;35.84;98477.58;1763082;81;20983;-78
2022/04/05 10:12:54;;;;;;;5.10;3.15;;;;;;;12.60;35.21;98473.34;1764765;80;21027;-79
2022/04/05 10:15:23;;;;;;;10.48;3.00;;;;;;;12.62;33.50;98467.14;1743616;81;21466;-79
2022/04/05 10:17:52;;;;;;;8.28;3.08;;;;;;;12.73;35.17;98458.41;1741467;81;20999;-79
2022/04/05 10:20:20;;;;;;;7.50;2.80;;;;;;;12.69;33.41;98442.50;1704690;81;21047;-79
2022/04/05 10:22:56;;;;;;;5.97;3.08;;;;;;;12.50;34.26;98448.95;1739590;81;20998;-79
2022/04/05 10:25:24;;;;;;;4.80;2.72;;;;;;;12.41;33.99;98439.37;1736299;81;20995;-78
2022/04/05 10:27:50;;;;;;;4.10;2.30;;;;;;;12.60;34.97;98440.75;1735339;81;20972;-78
2022/04/05 10:30:31;;;;;;;9.05;3.00;;;;;;;12.79;34.60;98428.56;1733643;81;21029;-78
2022/04/05 10:33:24;;;;;;;7.50;2.95;;;;;;;12.94;33.63;98425.73;1730454;81;20984;-78
2022/04/05 10:35:57;;;;;;;7.87;2.33;;;;;;;13.11;32.55;98439.30;1701591;84;21163;-79
2022/04/05 10:38:24;;;;;;;11.73;3.92;;;;;;;13.18;33.54;98424.23;1670891;84;21011;-79
2022/04/05 10:41:20;;;;;;;7.55;3.00;;;;;;;13.38;33.04;98423.33;1699550;83;21070;-77
2022/04/05 10:44:09;;;;;;;6.42;2.47;;;;;;;13.42;32.85;98423.56;1702569;83;20975;-80
2022/04/05 10:46:41;;;;;;;11.15;2.62;;;;;;;13.50;32.13;98440.55;1699267;83;21096;-78
2022/04/05 10:49:08;;;;;;;6.43;3.27;;;;;;;13.50;30.78;98420.12;1703775;83;21547;-79
2022/04/05 10:52:03;;;;;;;5.15;2.70;;;;;;;13.50;30.64;98413.60;1701867;83;21056;-79
2022/04/05 10:54:35;;;;;;;5.15;2.87;;;;;;;13.43;31.13;98408.27;1722743;81;21019;-79
2022/04/05 10:57:29;;;;;;;9.20;4.33;;;;;;;13.67;31.20;98426.70;1736652;81;21153;-79
2022/04/05 11:00:15;;;;;;;4.58;2.90;;;;;;;13.71;31.29;98410.42;1734194;81;21007;-80
2022/04/05 11:02:47;;;;;;;13.05;2.80;;;;;;;13.79;30.37;98406.97;1734837;81;21104;-78
2022/04/05 11:05:19;;;;;;;7.08;2.92;;;;;;;13.67;30.49;98387.98;1733379;81;21378;-79
2022/04/05 11:08:00;;;;;;;8.03;2.40;;;;;;;13.84;31.31;98402.82;1733177;81;21055;-79
2022/04/05 11:10:41;;;;;;;3.77;2.15;;;;;;;13.75;31.55;98402.83;1741075;81;20983;-78
2022/04/05 11:13:15;;;;;;;6.12;2.83;;;;;;;13.67;30.82;98403.20;1737368;82;21038;-79
2022/04/05 11:15:49;;;;;;;6.25;2.90;;;;;;;13.55;30.07;98409.02;1750599;81;21004;-79
2022/04/05 11:18:24;;;;;;;4.75;2.55;;;;;;;13.63;30.46;98399.52;1760352;81;21023;-79
2022/04/05 11:20:53;;;;;;;7.22;2.80;;;;;;;13.82;30.08;98399.44;1750150;81;21008;-79
2022/04/05 11:23:23;;;;;;;6.05;3.25;;;;;;;14.01;30.28;98394.99;1759189;81;20997;-78
2022/04/05 11:25:50;;;;;;;8.48;2.70;;;;;;;14.09;30.39;98394.14;1748212;81;21083;-79
2022/04/05 11:28:21;;;;;;;4.60;2.52;;;;;;;14.31;30.20;98389.12;1744625;81;20980;-78
2022/04/05 11:31:06;;;;;;;5.15;2.40;;;;;;;14.31;28.79;98416.59;1753032;81;21071;-79
2022/04/05 11:33:37;;;;;;;6.30;2.65;;;;;;;14.64;28.81;98393.54;1753480;81;21604;-79